createdAt,value
2022-12-31T00:00:59.796Z,761.24
2022-12-31T00:01:59.820Z,761.02
2022-12-31T00:02:59.931Z,761.09
2022-12-31T00:03:59.770Z,761.17
2022-12-31T00:04:59.733Z,759.86
2022-12-31T00:05:59.734Z,758.59
2022-12-31T00:06:59.712Z,757.94
2022-12-31T00:07:59.731Z,757.58
2022-12-31T00:08:59.717Z,757.00
2022-12-31T00:09:59.681Z,756.19
2022-12-31T00:10:59.665Z,755.21
2022-12-31T00:11:59.662Z,754.47
2022-12-31T00:12:59.938Z,753.73
2022-12-31T00:13:59.696Z,753.56
2022-12-31T00:14:59.625Z,754.25
2022-12-31T00:15:59.605Z,753.23
2022-12-31T00:16:59.684Z,752.78
2022-12-31T00:17:59.593Z,752.72
2022-12-31T00:18:59.605Z,751.88
2022-12-31T00:19:59.575Z,750.74
2022-12-31T00:20:59.547Z,749.77
2022-12-31T00:21:59.541Z,749.27
2022-12-31T00:22:59.524Z,749.04
2022-12-31T00:23:59.542Z,748.77
2022-12-31T00:24:59.507Z,748.05
2022-12-31T00:25:59.513Z,748.01
2022-12-31T00:26:59.593Z,747.48
2022-12-31T00:27:59.475Z,747.21
2022-12-31T00:28:59.464Z,746.75
2022-12-31T00:30:04.223Z,745.47
2022-12-31T00:31:00.446Z,744.96
2022-12-31T00:31:59.439Z,744.85
2022-12-31T00:32:59.415Z,744.90
2022-12-31T00:33:59.426Z,745.11
2022-12-31T00:34:59.387Z,744.46
2022-12-31T00:35:59.386Z,743.65
2022-12-31T00:36:59.366Z,743.04
2022-12-31T00:37:59.386Z,742.56
2022-12-31T00:38:59.357Z,742.17
2022-12-31T00:39:59.340Z,742.15
2022-12-31T00:40:59.326Z,741.14
2022-12-31T00:41:59.307Z,739.52
2022-12-31T00:42:59.306Z,739.16
2022-12-31T00:43:59.303Z,739.55
2022-12-31T00:44:59.269Z,740.34
2022-12-31T00:45:59.248Z,739.82
2022-12-31T00:47:06.492Z,739.05
2022-12-31T00:48:06.487Z,737.93
2022-12-31T00:49:06.466Z,736.74
2022-12-31T00:50:06.474Z,736.08
2022-12-31T00:51:07.453Z,735.53
2022-12-31T00:52:06.448Z,735.62
2022-12-31T00:53:06.476Z,735.66
2022-12-31T00:53:59.172Z,735.91
2022-12-31T00:54:59.160Z,736.00
2022-12-31T00:55:59.150Z,735.43
2022-12-31T00:56:59.162Z,734.28
2022-12-31T00:57:59.386Z,733.54
2022-12-31T00:58:59.173Z,732.68
2022-12-31T00:59:59.109Z,731.48
2022-12-31T01:00:59.159Z,730.50
2022-12-31T01:01:59.196Z,729.77
2022-12-31T01:02:59.175Z,729.79
2022-12-31T01:03:59.065Z,729.43
2022-12-31T01:04:59.041Z,730.30
2022-12-31T01:05:59.052Z,730.18
2022-12-31T01:06:59.030Z,729.64
2022-12-31T01:07:59.021Z,728.55
2022-12-31T01:08:59.022Z,728.09
2022-12-31T01:09:58.988Z,727.95
2022-12-31T01:10:58.989Z,727.70
2022-12-31T01:11:58.963Z,728.44
2022-12-31T01:12:58.952Z,727.93
2022-12-31T01:13:58.961Z,728.28
2022-12-31T01:14:58.939Z,728.54
2022-12-31T01:15:58.935Z,727.50
2022-12-31T01:16:58.930Z,726.94
2022-12-31T01:17:58.884Z,727.30
2022-12-31T01:18:58.932Z,727.75
2022-12-31T01:19:58.876Z,727.83
2022-12-31T01:20:58.853Z,728.16
2022-12-31T01:21:58.855Z,729.16
2022-12-31T01:22:58.855Z,728.63
2022-12-31T01:23:58.840Z,728.37
2022-12-31T01:24:58.803Z,728.42
2022-12-31T01:25:58.812Z,728.75
2022-12-31T01:26:58.794Z,729.09
2022-12-31T01:27:58.778Z,729.26
2022-12-31T01:28:58.796Z,729.71
2022-12-31T01:29:58.802Z,729.85
2022-12-31T01:30:58.837Z,729.04
2022-12-31T01:31:58.722Z,728.02
2022-12-31T01:32:58.746Z,727.79
2022-12-31T01:33:58.738Z,728.71
2022-12-31T01:34:58.694Z,729.56
2022-12-31T01:35:58.700Z,730.85
2022-12-31T01:36:58.676Z,731.00
2022-12-31T01:37:58.680Z,730.28
2022-12-31T01:38:58.667Z,729.91
2022-12-31T01:39:58.641Z,729.83
2022-12-31T01:40:58.618Z,730.09
2022-12-31T01:41:58.609Z,731.02
2022-12-31T01:42:58.617Z,731.52
2022-12-31T01:43:58.642Z,730.98
2022-12-31T01:44:58.607Z,730.85
2022-12-31T01:45:58.577Z,730.93
2022-12-31T01:46:58.565Z,731.02
2022-12-31T01:47:58.539Z,731.04
2022-12-31T01:48:58.539Z,730.66
2022-12-31T01:49:58.567Z,730.07
2022-12-31T01:50:58.524Z,729.51
2022-12-31T01:51:58.501Z,729.31
2022-12-31T01:52:58.508Z,729.55
2022-12-31T01:53:58.509Z,730.09
2022-12-31T01:54:58.472Z,729.81
2022-12-31T01:55:58.453Z,729.92
2022-12-31T01:56:58.453Z,729.78
2022-12-31T01:57:58.431Z,729.49
2022-12-31T01:58:58.435Z,729.18
2022-12-31T01:59:58.415Z,728.57
2022-12-31T02:00:58.473Z,728.30
2022-12-31T02:01:58.702Z,728.62
2022-12-31T02:02:58.403Z,728.14
2022-12-31T02:03:58.386Z,727.97
2022-12-31T02:04:58.341Z,727.95
2022-12-31T02:05:58.332Z,727.77
2022-12-31T02:06:58.345Z,727.76
2022-12-31T02:07:58.311Z,727.23
2022-12-31T02:08:58.332Z,726.66
2022-12-31T02:09:58.295Z,726.21
2022-12-31T02:10:58.337Z,726.00
2022-12-31T02:11:58.284Z,726.35
2022-12-31T02:12:58.259Z,726.37
2022-12-31T02:13:58.855Z,726.28
2022-12-31T02:14:58.234Z,726.96
2022-12-31T02:15:58.258Z,727.43
2022-12-31T02:16:58.215Z,728.04
2022-12-31T02:17:58.217Z,728.95
2022-12-31T02:18:58.205Z,729.57
2022-12-31T02:19:58.176Z,730.40
2022-12-31T02:20:58.174Z,730.05
2022-12-31T02:21:58.146Z,729.99
2022-12-31T02:22:58.133Z,730.31
2022-12-31T02:23:58.156Z,730.57
2022-12-31T02:24:58.132Z,730.90
2022-12-31T02:25:58.127Z,731.27
2022-12-31T02:27:06.115Z,731.31
2022-12-31T02:27:58.088Z,731.54
2022-12-31T02:28:58.097Z,730.87
2022-12-31T02:29:58.071Z,730.35
2022-12-31T02:30:58.114Z,730.16
2022-12-31T02:31:58.190Z,730.33
2022-12-31T02:32:58.038Z,730.23
2022-12-31T02:33:58.020Z,730.30
2022-12-31T02:34:58.036Z,729.28
2022-12-31T02:35:57.995Z,727.76
2022-12-31T02:36:57.978Z,726.84
2022-12-31T02:37:57.989Z,726.16
2022-12-31T02:38:57.988Z,726.23
2022-12-31T02:39:57.948Z,726.04
2022-12-31T02:40:57.955Z,725.82
2022-12-31T02:41:57.927Z,725.59
2022-12-31T02:42:57.946Z,725.59
2022-12-31T02:43:57.906Z,726.12
2022-12-31T02:44:57.901Z,726.48
2022-12-31T02:45:57.897Z,726.26
2022-12-31T02:46:58.140Z,725.39
2022-12-31T02:47:57.850Z,724.65
2022-12-31T02:48:58.158Z,721.32
2022-12-31T02:49:57.822Z,717.25
2022-12-31T02:50:57.802Z,716.11
2022-12-31T02:51:57.826Z,716.81
2022-12-31T02:52:57.791Z,717.26
2022-12-31T02:53:57.788Z,718.06
2022-12-31T02:54:57.798Z,718.48
2022-12-31T02:55:57.766Z,718.91
2022-12-31T02:57:05.029Z,719.28
2022-12-31T02:58:04.988Z,719.87
2022-12-31T02:59:04.976Z,719.98
2022-12-31T02:59:57.745Z,719.68
2022-12-31T03:01:05.028Z,719.91
2022-12-31T03:01:57.831Z,720.76
2022-12-31T03:02:57.756Z,721.20
2022-12-31T03:03:57.683Z,722.18
2022-12-31T03:04:57.652Z,723.69
2022-12-31T03:05:57.906Z,724.30
2022-12-31T03:06:57.657Z,724.11
2022-12-31T03:07:57.652Z,722.78
2022-12-31T03:08:57.652Z,721.70
2022-12-31T03:09:57.635Z,721.93
2022-12-31T03:10:57.582Z,722.24
2022-12-31T03:11:57.593Z,723.47
2022-12-31T03:12:57.569Z,723.83
2022-12-31T03:13:57.583Z,724.30
2022-12-31T03:14:57.545Z,724.49
2022-12-31T03:15:57.614Z,724.34
2022-12-31T03:16:57.521Z,723.49
2022-12-31T03:17:57.528Z,722.83
2022-12-31T03:18:57.508Z,722.96
2022-12-31T03:19:57.505Z,722.81
2022-12-31T03:20:57.480Z,722.40
2022-12-31T03:21:57.493Z,721.39
2022-12-31T03:22:57.464Z,721.10
2022-12-31T03:23:57.457Z,721.13
2022-12-31T03:24:57.437Z,721.55
2022-12-31T03:25:57.421Z,722.39
2022-12-31T03:26:57.407Z,723.02
2022-12-31T03:27:57.420Z,723.18
2022-12-31T03:28:57.475Z,722.82
2022-12-31T03:29:57.367Z,722.21
2022-12-31T03:30:57.372Z,721.66
2022-12-31T03:31:57.350Z,721.89
2022-12-31T03:32:57.328Z,722.24
2022-12-31T03:33:57.359Z,722.47
2022-12-31T03:34:57.308Z,721.68
2022-12-31T03:35:57.301Z,720.31
2022-12-31T03:36:57.294Z,719.53
2022-12-31T03:37:57.291Z,719.22
2022-12-31T03:38:57.300Z,719.55
2022-12-31T03:39:57.256Z,720.27
2022-12-31T03:40:57.250Z,719.29
2022-12-31T03:41:57.265Z,717.71
2022-12-31T03:42:57.230Z,717.25
2022-12-31T03:43:57.209Z,716.71
2022-12-31T03:44:57.198Z,716.78
2022-12-31T03:45:57.244Z,716.86
2022-12-31T03:46:57.180Z,718.27
2022-12-31T03:47:57.167Z,719.50
2022-12-31T03:48:57.192Z,719.88
2022-12-31T03:49:57.142Z,719.88
2022-12-31T03:50:57.112Z,719.63
2022-12-31T03:51:57.121Z,718.82
2022-12-31T03:52:57.132Z,716.66
2022-12-31T03:53:57.114Z,716.26
2022-12-31T03:54:57.078Z,715.94
2022-12-31T03:55:57.083Z,715.89
2022-12-31T03:57:00.268Z,715.91
2022-12-31T03:57:57.045Z,716.25
2022-12-31T03:58:57.029Z,716.83
2022-12-31T03:59:57.037Z,716.92
2022-12-31T04:00:57.162Z,717.08
2022-12-31T04:01:57.056Z,717.84
2022-12-31T04:02:57.090Z,717.85
2022-12-31T04:03:56.978Z,718.15
2022-12-31T04:04:56.969Z,718.16
2022-12-31T04:05:56.985Z,717.65
2022-12-31T04:06:56.945Z,716.95
2022-12-31T04:07:56.952Z,716.36
2022-12-31T04:08:56.919Z,716.20
2022-12-31T04:09:56.927Z,716.38
2022-12-31T04:10:56.896Z,716.10
2022-12-31T04:11:56.910Z,715.00
2022-12-31T04:12:56.887Z,713.91
2022-12-31T04:13:56.876Z,713.61
2022-12-31T04:14:56.838Z,713.85
2022-12-31T04:15:56.843Z,714.79
2022-12-31T04:16:56.832Z,715.36
2022-12-31T04:17:56.850Z,715.60
2022-12-31T04:18:56.818Z,715.96
2022-12-31T04:19:56.810Z,716.40
2022-12-31T04:20:56.766Z,715.40
2022-12-31T04:21:56.778Z,714.65
2022-12-31T04:22:56.814Z,714.53
2022-12-31T04:23:56.749Z,713.49
2022-12-31T04:24:56.739Z,713.84
2022-12-31T04:25:56.726Z,713.16
2022-12-31T04:26:59.652Z,712.26
2022-12-31T04:27:57.708Z,711.91
2022-12-31T04:28:56.731Z,711.46
2022-12-31T04:29:56.679Z,710.33
2022-12-31T04:30:56.696Z,710.63
2022-12-31T04:31:56.714Z,711.44
2022-12-31T04:32:56.693Z,713.38
2022-12-31T04:33:56.679Z,714.94
2022-12-31T04:34:56.609Z,715.59
2022-12-31T04:35:56.622Z,715.90
2022-12-31T04:36:56.604Z,715.99
2022-12-31T04:37:56.610Z,716.09
2022-12-31T04:38:56.572Z,715.57
2022-12-31T04:40:01.881Z,716.06
2022-12-31T04:40:57.557Z,716.62
2022-12-31T04:41:56.551Z,715.81
2022-12-31T04:42:56.565Z,715.63
2022-12-31T04:43:56.552Z,715.78
2022-12-31T04:44:56.545Z,716.13
2022-12-31T04:45:56.522Z,715.94
2022-12-31T04:46:56.489Z,714.83
2022-12-31T04:47:56.494Z,714.30
2022-12-31T04:48:56.502Z,714.28
2022-12-31T04:49:56.484Z,713.86
2022-12-31T04:50:56.444Z,713.73
2022-12-31T04:51:56.432Z,712.45
2022-12-31T04:52:56.419Z,710.49
2022-12-31T04:53:56.402Z,709.62
2022-12-31T04:54:56.389Z,708.51
2022-12-31T04:55:56.386Z,707.29
2022-12-31T04:56:56.373Z,706.44
2022-12-31T04:57:56.376Z,706.80
2022-12-31T04:58:56.361Z,706.81
2022-12-31T04:59:56.326Z,706.75
2022-12-31T05:00:56.586Z,706.68
2022-12-31T05:01:56.636Z,706.21
2022-12-31T05:03:03.801Z,706.14
2022-12-31T05:04:03.542Z,705.62
2022-12-31T05:04:56.320Z,705.07
2022-12-31T05:06:04.834Z,704.82
2022-12-31T05:06:56.532Z,703.34
2022-12-31T05:07:56.245Z,703.14
2022-12-31T05:08:56.243Z,701.22
2022-12-31T05:09:56.253Z,700.33
2022-12-31T05:10:56.212Z,700.46
2022-12-31T05:11:56.246Z,699.65
2022-12-31T05:12:56.193Z,700.12
2022-12-31T05:13:56.199Z,701.29
2022-12-31T05:14:56.161Z,702.13
2022-12-31T05:15:56.183Z,702.40
2022-12-31T05:16:56.173Z,701.06
2022-12-31T05:17:56.126Z,698.76
2022-12-31T05:18:56.127Z,697.27
2022-12-31T05:19:56.128Z,696.56
2022-12-31T05:20:56.100Z,696.68
2022-12-31T05:21:56.089Z,696.55
2022-12-31T05:22:56.071Z,696.83
2022-12-31T05:23:56.076Z,698.21
2022-12-31T05:24:56.061Z,699.15
2022-12-31T05:25:56.036Z,700.06
2022-12-31T05:26:56.040Z,699.44
2022-12-31T05:27:56.030Z,698.66
2022-12-31T05:28:56.027Z,697.03
2022-12-31T05:29:55.992Z,695.76
2022-12-31T05:30:56.010Z,694.01
2022-12-31T05:31:55.980Z,693.58
2022-12-31T05:32:56.283Z,692.29
2022-12-31T05:33:55.998Z,691.76
2022-12-31T05:34:55.922Z,692.33
2022-12-31T05:35:55.922Z,692.96
2022-12-31T05:36:55.939Z,693.73
2022-12-31T05:37:55.901Z,693.88
2022-12-31T05:38:55.869Z,693.77
2022-12-31T05:39:55.927Z,692.87
2022-12-31T05:40:55.870Z,693.62
2022-12-31T05:41:55.864Z,694.04
2022-12-31T05:42:55.852Z,694.38
2022-12-31T05:43:55.869Z,694.68
2022-12-31T05:44:55.830Z,694.80
2022-12-31T05:45:55.838Z,695.52
2022-12-31T05:46:55.804Z,695.83
2022-12-31T05:47:55.811Z,695.41
2022-12-31T05:48:55.785Z,694.78
2022-12-31T05:49:55.763Z,694.34
2022-12-31T05:50:55.777Z,693.78
2022-12-31T05:51:55.748Z,693.97
2022-12-31T05:52:55.755Z,694.14
2022-12-31T05:53:55.737Z,693.78
2022-12-31T05:54:55.691Z,693.48
2022-12-31T05:55:55.708Z,694.52
2022-12-31T05:56:55.674Z,695.46
2022-12-31T05:57:55.694Z,695.95
2022-12-31T05:58:55.707Z,696.00
2022-12-31T05:59:55.701Z,696.31
2022-12-31T06:00:56.456Z,695.51
2022-12-31T06:01:55.658Z,695.96
2022-12-31T06:02:55.754Z,696.15
2022-12-31T06:03:56.453Z,697.26
2022-12-31T06:04:55.605Z,697.32
2022-12-31T06:05:55.584Z,697.27
2022-12-31T06:06:55.565Z,697.34
2022-12-31T06:07:55.559Z,697.76
2022-12-31T06:08:55.549Z,698.28
2022-12-31T06:09:55.526Z,698.83
2022-12-31T06:10:55.548Z,700.03
2022-12-31T06:11:55.506Z,700.62
2022-12-31T06:12:55.510Z,701.07
2022-12-31T06:13:55.487Z,701.83
2022-12-31T06:14:55.496Z,702.10
2022-12-31T06:15:55.652Z,702.09
2022-12-31T06:16:55.440Z,702.05
2022-12-31T06:17:55.448Z,702.83
2022-12-31T06:18:55.449Z,702.75
2022-12-31T06:19:55.493Z,701.56
2022-12-31T06:20:55.415Z,700.73
2022-12-31T06:21:55.411Z,701.21
2022-12-31T06:22:55.388Z,701.56
2022-12-31T06:23:55.368Z,701.77
2022-12-31T06:24:55.370Z,701.05
2022-12-31T06:25:55.371Z,700.97
2022-12-31T06:26:55.342Z,700.63
2022-12-31T06:27:55.361Z,699.97
2022-12-31T06:28:55.325Z,698.16
2022-12-31T06:29:55.340Z,696.47
2022-12-31T06:30:55.614Z,695.53
2022-12-31T06:31:55.294Z,695.80
2022-12-31T06:32:55.329Z,695.86
2022-12-31T06:33:55.287Z,695.47
2022-12-31T06:34:55.252Z,695.33
2022-12-31T06:35:55.243Z,695.50
2022-12-31T06:36:55.228Z,695.03
2022-12-31T06:37:55.225Z,695.30
2022-12-31T06:38:55.238Z,694.86
2022-12-31T06:39:55.192Z,694.69
2022-12-31T06:40:55.191Z,695.16
2022-12-31T06:41:55.169Z,695.60
2022-12-31T06:42:59.859Z,695.13
2022-12-31T06:43:56.143Z,694.51
2022-12-31T06:44:55.136Z,694.39
2022-12-31T06:45:55.132Z,694.26
2022-12-31T06:46:55.181Z,694.19
2022-12-31T06:47:55.097Z,694.27
2022-12-31T06:48:55.119Z,693.29
2022-12-31T06:49:55.135Z,691.00
2022-12-31T06:50:55.088Z,690.00
2022-12-31T06:51:55.056Z,689.54
2022-12-31T06:52:55.080Z,688.32
2022-12-31T06:53:55.036Z,688.20
2022-12-31T06:54:55.006Z,689.20
2022-12-31T06:55:55.027Z,688.67
2022-12-31T06:56:54.995Z,688.88
2022-12-31T06:57:54.991Z,689.50
2022-12-31T06:58:54.996Z,689.84
2022-12-31T06:59:55.007Z,690.28
2022-12-31T07:00:55.021Z,690.33
2022-12-31T07:01:54.986Z,690.24
2022-12-31T07:02:55.004Z,690.29
2022-12-31T07:03:54.919Z,690.45
2022-12-31T07:04:54.906Z,690.39
2022-12-31T07:05:54.886Z,690.50
2022-12-31T07:06:54.879Z,691.06
2022-12-31T07:08:02.120Z,691.37
2022-12-31T07:09:03.121Z,691.47
2022-12-31T07:10:02.105Z,691.28
2022-12-31T07:11:03.080Z,690.99
2022-12-31T07:12:03.079Z,690.85
2022-12-31T07:12:54.808Z,690.99
2022-12-31T07:13:54.778Z,689.31
2022-12-31T07:14:54.794Z,688.14
2022-12-31T07:15:54.827Z,688.03
2022-12-31T07:16:54.767Z,688.21
2022-12-31T07:17:54.740Z,688.06
2022-12-31T07:18:54.761Z,687.85
2022-12-31T07:19:57.632Z,687.54
2022-12-31T07:20:54.738Z,687.08
2022-12-31T07:21:54.739Z,685.81
2022-12-31T07:22:54.709Z,685.41
2022-12-31T07:23:54.679Z,685.78
2022-12-31T07:24:54.681Z,686.56
2022-12-31T07:25:54.674Z,685.90
2022-12-31T07:26:57.006Z,685.81
2022-12-31T07:27:54.654Z,685.53
2022-12-31T07:28:54.641Z,685.87
2022-12-31T07:29:54.608Z,685.73
2022-12-31T07:30:54.712Z,685.90
2022-12-31T07:31:54.610Z,686.34
2022-12-31T07:32:54.592Z,687.19
2022-12-31T07:33:54.571Z,688.22
2022-12-31T07:34:54.563Z,689.07
2022-12-31T07:35:54.562Z,690.26
2022-12-31T07:36:54.553Z,689.72
2022-12-31T07:37:54.513Z,689.42
2022-12-31T07:38:54.542Z,689.33
2022-12-31T07:39:54.483Z,689.30
2022-12-31T07:40:55.935Z,688.75
2022-12-31T07:41:54.484Z,688.00
2022-12-31T07:42:54.454Z,688.02
2022-12-31T07:43:54.475Z,688.86
2022-12-31T07:44:54.697Z,688.45
2022-12-31T07:45:54.423Z,687.79
2022-12-31T07:46:54.494Z,687.29
2022-12-31T07:48:00.501Z,686.89
2022-12-31T07:48:55.418Z,687.15
2022-12-31T07:49:54.408Z,687.32
2022-12-31T07:50:54.410Z,687.91
2022-12-31T07:51:54.385Z,688.43
2022-12-31T07:52:54.346Z,689.53
2022-12-31T07:53:54.363Z,690.27
2022-12-31T07:54:54.320Z,690.02
2022-12-31T07:55:54.323Z,689.56
2022-12-31T07:56:54.307Z,688.41
2022-12-31T07:57:54.316Z,687.54
2022-12-31T07:58:54.286Z,686.84
2022-12-31T07:59:54.278Z,686.65
2022-12-31T08:00:54.586Z,686.90
2022-12-31T08:01:54.420Z,687.77
2022-12-31T08:02:54.271Z,688.17
2022-12-31T08:03:54.218Z,687.70
2022-12-31T08:04:54.208Z,687.56
2022-12-31T08:05:54.213Z,688.48
2022-12-31T08:06:54.468Z,688.65
2022-12-31T08:07:54.196Z,688.62
2022-12-31T08:08:54.166Z,689.32
2022-12-31T08:09:54.162Z,690.05
2022-12-31T08:10:54.141Z,690.22
2022-12-31T08:11:54.137Z,690.68
2022-12-31T08:12:54.134Z,690.01
2022-12-31T08:13:54.149Z,690.00
2022-12-31T08:14:56.828Z,689.50
2022-12-31T08:15:54.206Z,688.87
2022-12-31T08:16:55.032Z,688.87
2022-12-31T08:17:54.082Z,689.06
2022-12-31T08:18:54.068Z,689.18
2022-12-31T08:19:54.042Z,689.13
2022-12-31T08:20:54.029Z,689.21
2022-12-31T08:21:54.001Z,689.13
2022-12-31T08:22:54.019Z,689.00
2022-12-31T08:23:54.022Z,689.21
2022-12-31T08:24:54.056Z,689.47
2022-12-31T08:25:53.962Z,688.66
2022-12-31T08:26:53.979Z,687.52
2022-12-31T08:27:53.942Z,686.67
2022-12-31T08:28:53.980Z,685.96
2022-12-31T08:29:53.923Z,685.82
2022-12-31T08:30:53.925Z,684.90
2022-12-31T08:31:53.951Z,684.99
2022-12-31T08:32:53.990Z,685.48
2022-12-31T08:33:53.891Z,685.61
2022-12-31T08:34:53.892Z,686.46
2022-12-31T08:35:53.884Z,687.13
2022-12-31T08:36:53.955Z,687.17
2022-12-31T08:37:54.135Z,686.37
2022-12-31T08:38:53.844Z,685.41
2022-12-31T08:39:53.837Z,685.41
2022-12-31T08:40:53.838Z,685.94
2022-12-31T08:41:53.835Z,684.94
2022-12-31T08:42:53.776Z,685.33
2022-12-31T08:43:53.796Z,685.50
2022-12-31T08:44:53.785Z,685.58
2022-12-31T08:45:53.804Z,685.73
2022-12-31T08:46:53.780Z,684.94
2022-12-31T08:47:59.483Z,684.56
2022-12-31T08:48:54.710Z,684.52
2022-12-31T08:49:53.716Z,684.34
2022-12-31T08:50:53.752Z,683.41
2022-12-31T08:51:53.707Z,683.40
2022-12-31T08:52:53.682Z,683.91
2022-12-31T08:53:53.689Z,681.50
2022-12-31T08:54:53.652Z,682.25
2022-12-31T08:55:53.652Z,683.58
2022-12-31T08:56:53.657Z,685.48
2022-12-31T08:57:53.628Z,686.79
2022-12-31T08:58:53.608Z,688.45
2022-12-31T08:59:53.607Z,690.05
2022-12-31T09:00:53.630Z,690.46
2022-12-31T09:01:53.703Z,690.44
2022-12-31T09:02:53.575Z,690.54
2022-12-31T09:03:53.618Z,691.33
2022-12-31T09:04:53.543Z,690.43
2022-12-31T09:05:53.526Z,689.55
2022-12-31T09:06:53.552Z,688.47
2022-12-31T09:07:53.519Z,689.41
2022-12-31T09:08:53.507Z,690.37
2022-12-31T09:09:53.489Z,690.02
2022-12-31T09:10:53.501Z,689.80
2022-12-31T09:11:53.493Z,691.10
2022-12-31T09:12:53.470Z,693.62
2022-12-31T09:13:53.485Z,694.93
2022-12-31T09:14:53.440Z,695.43
2022-12-31T09:15:53.422Z,695.81
2022-12-31T09:16:53.434Z,695.58
2022-12-31T09:17:53.398Z,695.20
2022-12-31T09:18:53.400Z,694.19
2022-12-31T09:19:53.370Z,691.88
2022-12-31T09:20:53.384Z,692.42
2022-12-31T09:21:53.365Z,693.77
2022-12-31T09:22:53.350Z,693.75
2022-12-31T09:23:53.350Z,693.35
2022-12-31T09:24:53.333Z,694.94
2022-12-31T09:25:53.315Z,695.94
2022-12-31T09:26:53.306Z,696.23
2022-12-31T09:27:53.287Z,695.96
2022-12-31T09:28:53.306Z,695.36
2022-12-31T09:29:53.286Z,694.41
2022-12-31T09:30:53.267Z,695.37
2022-12-31T09:31:53.276Z,695.65
2022-12-31T09:33:00.400Z,696.31
2022-12-31T09:33:54.290Z,697.09
2022-12-31T09:34:53.212Z,697.97
2022-12-31T09:35:53.244Z,698.57
2022-12-31T09:36:53.176Z,699.06
2022-12-31T09:37:53.198Z,699.25
2022-12-31T09:38:53.220Z,699.47
2022-12-31T09:39:53.177Z,699.97
2022-12-31T09:40:53.430Z,698.91
2022-12-31T09:41:53.157Z,697.00
2022-12-31T09:42:53.413Z,695.42
2022-12-31T09:43:58.949Z,695.48
2022-12-31T09:44:54.103Z,696.69
2022-12-31T09:45:53.131Z,697.59
2022-12-31T09:46:53.083Z,694.73
2022-12-31T09:47:53.071Z,689.98
2022-12-31T09:48:53.111Z,687.37
2022-12-31T09:49:53.042Z,686.12
2022-12-31T09:50:53.059Z,685.60
2022-12-31T09:51:53.043Z,685.92
2022-12-31T09:52:53.012Z,686.41
2022-12-31T09:53:53.010Z,686.65
2022-12-31T09:54:53.024Z,686.21
2022-12-31T09:55:52.983Z,685.68
2022-12-31T09:56:58.783Z,685.71
2022-12-31T09:57:53.957Z,685.83
2022-12-31T09:58:52.968Z,686.28
2022-12-31T09:59:52.946Z,686.92
2022-12-31T10:00:53.010Z,686.65
2022-12-31T10:01:53.277Z,685.71
2022-12-31T10:02:52.988Z,684.58
2022-12-31T10:03:52.913Z,685.08
2022-12-31T10:04:52.874Z,685.33
2022-12-31T10:05:52.908Z,685.53
2022-12-31T10:06:52.856Z,685.50
2022-12-31T10:07:53.815Z,684.25
2022-12-31T10:08:52.858Z,681.80
2022-12-31T10:09:52.830Z,680.85
2022-12-31T10:10:53.725Z,681.96
2022-12-31T10:11:52.800Z,682.90
2022-12-31T10:12:52.816Z,683.19
2022-12-31T10:13:52.785Z,681.48
2022-12-31T10:14:52.765Z,678.58
2022-12-31T10:15:52.777Z,677.11
2022-12-31T10:16:52.789Z,677.82
2022-12-31T10:17:52.727Z,679.21
2022-12-31T10:18:52.771Z,677.97
2022-12-31T10:19:52.721Z,677.58
2022-12-31T10:20:52.696Z,678.69
2022-12-31T10:21:52.701Z,679.29
2022-12-31T10:22:52.685Z,679.37
2022-12-31T10:23:52.668Z,679.71
2022-12-31T10:24:52.647Z,680.56
2022-12-31T10:25:52.650Z,681.83
2022-12-31T10:26:53.520Z,681.56
2022-12-31T10:27:52.626Z,679.51
2022-12-31T10:28:52.640Z,678.79
2022-12-31T10:29:52.588Z,679.42
2022-12-31T10:30:52.609Z,679.95
2022-12-31T10:31:52.579Z,680.65
2022-12-31T10:32:52.575Z,680.49
2022-12-31T10:33:52.546Z,681.52
2022-12-31T10:34:52.586Z,682.32
2022-12-31T10:35:52.540Z,682.08
2022-12-31T10:36:52.509Z,680.97
2022-12-31T10:37:52.502Z,678.31
2022-12-31T10:38:52.506Z,676.88
2022-12-31T10:39:52.485Z,677.69
2022-12-31T10:40:52.482Z,678.90
2022-12-31T10:41:52.463Z,678.05
2022-12-31T10:42:52.431Z,677.06
2022-12-31T10:43:52.454Z,676.73
2022-12-31T10:44:52.433Z,677.12
2022-12-31T10:45:52.432Z,676.03
2022-12-31T10:46:52.393Z,674.45
2022-12-31T10:47:52.405Z,673.02
2022-12-31T10:48:52.431Z,673.60
2022-12-31T10:49:52.370Z,673.65
2022-12-31T10:50:52.383Z,674.00
2022-12-31T10:51:52.345Z,673.76
2022-12-31T10:52:52.317Z,675.12
2022-12-31T10:53:52.323Z,675.25
2022-12-31T10:54:52.313Z,674.09
2022-12-31T10:55:52.314Z,673.51
2022-12-31T10:56:52.266Z,674.86
2022-12-31T10:57:52.276Z,674.70
2022-12-31T10:58:52.269Z,673.35
2022-12-31T10:59:52.254Z,673.35
2022-12-31T11:00:52.255Z,675.18
2022-12-31T11:01:52.318Z,675.40
2022-12-31T11:02:52.341Z,674.27
2022-12-31T11:03:52.202Z,674.32
2022-12-31T11:04:52.215Z,675.63
2022-12-31T11:05:52.211Z,675.12
2022-12-31T11:06:52.161Z,673.21
2022-12-31T11:07:52.159Z,672.30
2022-12-31T11:08:52.167Z,672.83
2022-12-31T11:09:52.136Z,675.20
2022-12-31T11:10:52.123Z,674.24
2022-12-31T11:11:52.113Z,675.09
2022-12-31T11:12:52.101Z,676.35
2022-12-31T11:13:52.098Z,675.74
2022-12-31T11:14:53.789Z,675.83
2022-12-31T11:15:52.166Z,677.38
2022-12-31T11:16:52.049Z,680.86
2022-12-31T11:17:52.039Z,683.69
2022-12-31T11:18:52.043Z,685.66
2022-12-31T11:19:51.997Z,685.06
2022-12-31T11:20:52.242Z,682.22
2022-12-31T11:21:51.991Z,679.77
2022-12-31T11:22:51.969Z,680.13
2022-12-31T11:23:52.003Z,680.63
2022-12-31T11:24:51.976Z,680.27
2022-12-31T11:25:51.951Z,678.24
2022-12-31T11:26:51.929Z,676.42
2022-12-31T11:27:52.192Z,675.09
2022-12-31T11:28:51.921Z,674.75
2022-12-31T11:29:52.134Z,676.80
2022-12-31T11:30:51.918Z,678.35
2022-12-31T11:31:51.917Z,677.95
2022-12-31T11:32:52.123Z,675.85
2022-12-31T11:33:51.854Z,674.68
2022-12-31T11:34:51.832Z,675.02
2022-12-31T11:35:51.846Z,675.82
2022-12-31T11:36:51.816Z,676.35
2022-12-31T11:37:51.819Z,677.64
2022-12-31T11:38:51.802Z,679.90
2022-12-31T11:39:52.061Z,681.18
2022-12-31T11:40:51.757Z,682.21
2022-12-31T11:41:51.771Z,682.29
2022-12-31T11:42:52.918Z,681.22
2022-12-31T11:43:51.735Z,678.71
2022-12-31T11:44:51.708Z,677.61
2022-12-31T11:45:51.748Z,677.42
2022-12-31T11:46:51.711Z,677.33
2022-12-31T11:48:28.734Z,677.14
2022-12-31T11:48:52.687Z,676.99
2022-12-31T11:49:51.649Z,677.36
2022-12-31T11:50:51.638Z,677.08
2022-12-31T11:51:51.618Z,677.47
2022-12-31T11:52:51.617Z,677.28
2022-12-31T11:53:51.651Z,677.97
2022-12-31T11:54:51.597Z,678.33
2022-12-31T11:55:51.585Z,678.79
2022-12-31T11:56:51.577Z,679.73
2022-12-31T11:57:51.574Z,681.58
2022-12-31T11:58:51.567Z,682.85
2022-12-31T11:59:51.532Z,683.40
2022-12-31T12:00:51.519Z,683.80
2022-12-31T12:01:51.542Z,684.45
2022-12-31T12:02:51.556Z,684.35
2022-12-31T12:03:51.545Z,683.47
2022-12-31T12:04:51.478Z,682.19
2022-12-31T12:05:51.476Z,681.24
2022-12-31T12:06:51.475Z,680.84
2022-12-31T12:07:51.447Z,681.09
2022-12-31T12:08:51.442Z,682.26
2022-12-31T12:09:51.435Z,682.04
2022-12-31T12:10:51.409Z,680.64
2022-12-31T12:11:51.396Z,680.95
2022-12-31T12:12:51.419Z,682.46
2022-12-31T12:13:51.401Z,683.89
2022-12-31T12:14:51.381Z,684.39
2022-12-31T12:15:51.512Z,684.99
2022-12-31T12:16:51.376Z,684.59
2022-12-31T12:17:51.332Z,682.20
2022-12-31T12:18:51.324Z,679.57
2022-12-31T12:19:51.333Z,678.83
2022-12-31T12:20:51.312Z,679.51
2022-12-31T12:21:51.285Z,681.10
2022-12-31T12:22:51.280Z,682.92
2022-12-31T12:23:51.263Z,684.63
2022-12-31T12:24:51.263Z,685.28
2022-12-31T12:25:51.273Z,685.18
2022-12-31T12:26:51.234Z,685.47
2022-12-31T12:27:51.224Z,684.05
2022-12-31T12:28:51.218Z,681.52